createdAt,value
2022-09-17T00:01:24.432Z,11.47
2022-09-17T00:03:53.608Z,11.47
2022-09-17T00:06:21.334Z,11.53
2022-09-17T00:08:49.628Z,11.57
2022-09-17T00:11:19.963Z,11.49
2022-09-17T00:13:50.925Z,11.57
2022-09-17T00:16:26.389Z,11.58
2022-09-17T00:18:54.393Z,11.57
2022-09-17T00:21:21.884Z,11.61
2022-09-17T00:23:52.860Z,11.50
2022-09-17T00:26:19.705Z,11.57
2022-09-17T00:28:51.965Z,11.59
2022-09-17T00:31:19.781Z,11.53
2022-09-17T00:33:47.469Z,11.55
2022-09-17T00:36:15.061Z,11.55
2022-09-17T00:38:41.983Z,11.53
2022-09-17T00:41:09.336Z,11.41
2022-09-17T00:43:41.184Z,11.44
2022-09-17T00:46:26.409Z,11.38
2022-09-17T00:48:55.325Z,11.38
2022-09-17T00:51:35.819Z,11.36
2022-09-17T00:54:07.531Z,11.33
2022-09-17T00:56:39.049Z,11.35
2022-09-17T00:59:07.572Z,11.30
2022-09-17T01:01:36.641Z,11.30
2022-09-17T01:04:04.013Z,11.37
2022-09-17T01:06:37.547Z,11.28
2022-09-17T01:09:26.248Z,11.22
2022-09-17T01:12:23.834Z,11.21
2022-09-17T01:15:14.212Z,11.27
2022-09-17T01:17:54.979Z,11.20
2022-09-17T01:21:14.935Z,11.15
2022-09-17T01:24:17.403Z,11.10
2022-09-17T01:27:31.364Z,11.21
2022-09-17T01:30:20.760Z,11.11
2022-09-17T01:32:58.144Z,11.16
2022-09-17T01:35:36.234Z,11.14
2022-09-17T01:38:15.363Z,11.14
2022-09-17T01:40:53.622Z,11.01
2022-09-17T01:43:32.036Z,11.02
2022-09-17T01:46:12.553Z,10.94
2022-09-17T01:48:47.152Z,10.89
2022-09-17T01:51:20.359Z,10.92
2022-09-17T01:53:54.977Z,10.91
2022-09-17T01:56:27.947Z,10.96
2022-09-17T01:59:04.414Z,10.93
2022-09-17T02:01:35.293Z,11.00
2022-09-17T02:04:11.397Z,11.04
2022-09-17T02:06:46.006Z,11.02
2022-09-17T02:09:18.536Z,11.06
2022-09-17T02:11:53.545Z,11.07
2022-09-17T02:14:27.585Z,11.02
2022-09-17T02:17:05.588Z,11.11
2022-09-17T02:19:38.701Z,11.16
2022-09-17T02:22:21.340Z,11.12
2022-09-17T02:25:03.721Z,11.17
2022-09-17T02:27:48.010Z,11.15
2022-09-17T02:30:16.207Z,11.12
2022-09-17T02:32:43.595Z,11.12
2022-09-17T02:35:13.078Z,11.10
2022-09-17T02:37:40.252Z,11.17
2022-09-17T02:40:08.737Z,11.18
2022-09-17T02:42:59.392Z,11.22
2022-09-17T02:45:48.766Z,11.29
2022-09-17T02:48:46.825Z,11.25
2022-09-17T02:51:36.465Z,11.19
2022-09-17T02:54:18.231Z,11.21
2022-09-17T02:56:57.482Z,11.17
2022-09-17T02:59:35.735Z,11.08
2022-09-17T03:02:12.085Z,10.92
2022-09-17T03:04:40.278Z,10.98
2022-09-17T03:07:11.519Z,10.96
2022-09-17T03:09:38.661Z,10.92
2022-09-17T03:12:06.279Z,10.94
2022-09-17T03:14:33.314Z,10.91
2022-09-17T03:17:00.279Z,10.88
2022-09-17T03:19:27.268Z,10.87
2022-09-17T03:21:54.115Z,10.88
2022-09-17T03:24:22.730Z,10.88
2022-09-17T03:26:49.739Z,10.93
2022-09-17T03:29:16.906Z,10.96
2022-09-17T03:31:44.382Z,10.96
2022-09-17T03:34:11.676Z,10.98
2022-09-17T03:36:38.495Z,10.98
2022-09-17T03:39:05.884Z,10.97
2022-09-17T03:41:34.004Z,10.91
2022-09-17T03:44:00.855Z,10.97
2022-09-17T03:46:27.745Z,10.98
2022-09-17T03:48:54.615Z,11.00
2022-09-17T03:51:21.788Z,10.98
2022-09-17T03:53:49.020Z,10.96
2022-09-17T03:56:15.816Z,10.91
2022-09-17T03:58:44.185Z,10.85
2022-09-17T04:01:11.352Z,10.94
2022-09-17T04:03:39.279Z,10.78
2022-09-17T04:06:06.824Z,10.78
2022-09-17T04:08:33.648Z,10.71
2022-09-17T04:11:00.504Z,10.68
2022-09-17T04:13:27.280Z,10.60
2022-09-17T04:15:55.528Z,10.56
2022-09-17T04:18:22.634Z,10.55
2022-09-17T04:20:50.001Z,10.56
2022-09-17T04:23:16.842Z,10.52
2022-09-17T04:25:44.810Z,10.50
2022-09-17T04:28:12.068Z,10.46
2022-09-17T04:30:39.465Z,10.47
2022-09-17T04:33:07.881Z,10.43
2022-09-17T04:35:35.533Z,10.53
2022-09-17T04:38:02.411Z,10.45
2022-09-17T04:40:29.809Z,10.43
2022-09-17T04:42:59.375Z,10.39
2022-09-17T04:45:26.520Z,10.32
2022-09-17T04:47:53.455Z,10.30
2022-09-17T04:50:22.367Z,10.23
2022-09-17T04:52:49.190Z,10.29
2022-09-17T04:55:16.841Z,10.22
2022-09-17T04:57:46.783Z,10.15
2022-09-17T05:00:15.449Z,10.22
2022-09-17T05:02:44.000Z,10.22
2022-09-17T05:05:10.773Z,10.20
2022-09-17T05:07:40.152Z,10.09
2022-09-17T05:10:09.489Z,10.22
2022-09-17T05:12:36.317Z,10.24
2022-09-17T05:15:03.815Z,10.26
2022-09-17T05:17:30.682Z,10.27
2022-09-17T05:19:57.606Z,10.33
2022-09-17T05:22:24.580Z,10.25
2022-09-17T05:24:53.030Z,10.38
2022-09-17T05:27:20.149Z,10.43
2022-09-17T05:29:46.964Z,10.40
2022-09-17T05:32:14.164Z,10.33
2022-09-17T05:34:41.389Z,10.42
2022-09-17T05:37:11.072Z,10.39
2022-09-17T05:39:40.801Z,10.39
2022-09-17T05:42:09.118Z,10.28
2022-09-17T05:44:35.939Z,10.44
2022-09-17T05:47:05.301Z,10.44
2022-09-17T05:49:32.396Z,10.50
2022-09-17T05:51:59.300Z,10.50
2022-09-17T05:54:29.923Z,10.57
2022-09-17T06:00:32.809Z,10.62
2022-09-17T06:03:00.600Z,10.71
2022-09-17T06:05:28.005Z,10.76
2022-09-17T06:08:32.598Z,10.78
2022-09-17T06:11:02.589Z,10.93
2022-09-17T06:13:41.968Z,10.93
2022-09-17T06:16:12.059Z,10.97
2022-09-17T06:18:54.831Z,10.93
2022-09-17T06:21:36.294Z,11.02
2022-09-17T06:24:03.646Z,11.11
2022-09-17T06:26:30.546Z,11.00
2022-09-17T06:29:00.522Z,11.14
2022-09-17T06:31:33.901Z,11.08
2022-09-17T06:34:31.464Z,11.19
2022-09-17T06:36:51.104Z,11.17
2022-09-17T06:39:22.147Z,11.04
2022-09-17T06:42:42.418Z,11.08
2022-09-17T06:46:17.819Z,11.07
2022-09-17T06:49:41.516Z,11.03
2022-09-17T06:52:08.785Z,10.99
2022-09-17T06:54:35.713Z,11.00
2022-09-17T06:57:02.667Z,10.94
2022-09-17T06:59:29.517Z,10.88
2022-09-17T07:09:15.271Z,10.77
2022-09-17T07:11:42.564Z,10.83
2022-09-17T07:14:10.150Z,10.80
2022-09-17T07:16:37.159Z,10.93
2022-09-17T07:19:05.123Z,10.97
2022-09-17T07:21:33.801Z,11.09
2022-09-17T07:24:02.053Z,11.26
2022-09-17T07:26:30.385Z,11.56
2022-09-17T07:28:59.485Z,11.40
2022-09-17T07:31:55.403Z,11.48
2022-09-17T07:39:18.000Z,11.66
2022-09-17T07:41:46.712Z,11.61
2022-09-17T07:44:22.047Z,11.47
2022-09-17T07:47:09.821Z,11.30
2022-09-17T07:49:44.898Z,11.44
2022-09-17T07:52:12.467Z,11.51
2022-09-17T07:58:39.951Z,11.57
2022-09-17T08:01:34.686Z,11.65
2022-09-17T08:04:32.950Z,11.81
2022-09-17T08:07:00.334Z,11.95
2022-09-17T08:09:27.532Z,12.05
2022-09-17T08:13:02.869Z,12.10
2022-09-17T08:16:20.148Z,12.53
2022-09-17T08:18:59.962Z,13.60
2022-09-17T08:21:29.044Z,14.04
2022-09-17T08:23:59.343Z,14.33
2022-09-17T08:26:29.156Z,14.59
2022-09-17T08:28:56.442Z,14.66
2022-09-17T08:31:29.691Z,14.03
2022-09-17T08:33:57.045Z,14.01
2022-09-17T08:36:24.017Z,14.87
2022-09-17T08:38:53.502Z,15.04
2022-09-17T08:41:30.568Z,14.78
2022-09-17T08:44:15.974Z,15.06
2022-09-17T08:46:50.743Z,14.66
2022-09-17T08:49:31.955Z,14.16
2022-09-17T08:52:51.636Z,13.87
2022-09-17T08:55:33.824Z,13.93
2022-09-17T08:58:30.770Z,13.98
2022-09-17T09:01:12.694Z,13.74
2022-09-17T09:04:04.341Z,14.05
2022-09-17T09:06:38.156Z,14.43
2022-09-17T09:09:14.460Z,14.96
2022-09-17T09:11:47.655Z,15.07
2022-09-17T09:14:23.267Z,15.06
2022-09-17T09:16:54.750Z,14.73
2022-09-17T09:19:30.974Z,14.30
2022-09-17T09:22:46.400Z,14.13
2022-09-17T09:25:47.398Z,13.73
2022-09-17T09:28:49.008Z,13.70
2022-09-17T09:31:44.663Z,13.92
2022-09-17T09:34:15.049Z,13.97
2022-09-17T09:36:44.736Z,14.26
2022-09-17T09:39:25.817Z,14.06
2022-09-17T09:42:00.716Z,14.15
2022-09-17T09:44:29.069Z,14.42
2022-09-17T09:47:33.870Z,15.98
2022-09-17T09:50:22.378Z,16.23
2022-09-17T09:53:21.893Z,16.25
2022-09-17T09:57:00.815Z,16.28
2022-09-17T09:59:29.287Z,16.10
2022-09-17T10:02:06.914Z,16.05
2022-09-17T10:04:53.559Z,15.76
2022-09-17T10:08:06.067Z,15.31
2022-09-17T10:11:00.542Z,15.54
2022-09-17T15:01:14.261Z,16.08
2022-09-17T15:03:41.316Z,16.16
2022-09-17T15:09:28.651Z,16.09
2022-09-17T15:12:00.724Z,16.14
2022-09-17T15:14:37.704Z,16.18
2022-09-17T15:17:14.654Z,16.17
2022-09-17T15:20:26.053Z,16.07
2022-09-17T15:23:33.731Z,16.13
2022-09-17T15:26:06.602Z,16.17
2022-09-17T15:28:46.710Z,16.15
2022-09-17T15:31:24.955Z,16.37
2022-09-17T15:33:53.845Z,16.30
2022-09-17T15:36:25.683Z,16.35
2022-09-17T15:38:52.953Z,16.32
2022-09-17T15:41:31.163Z,16.34
2022-09-17T15:44:31.875Z,16.35
2022-09-17T15:47:50.033Z,16.26
2022-09-17T15:50:21.465Z,16.18
2022-09-17T15:56:23.242Z,15.86
2022-09-17T16:04:08.962Z,15.76
2022-09-17T16:10:53.840Z,15.89
2022-09-17T16:13:27.942Z,15.80
2022-09-17T16:15:57.563Z,15.75
2022-09-17T16:18:24.468Z,15.66
2022-09-17T16:20:51.217Z,15.58
2022-09-17T16:23:18.362Z,15.54
2022-09-17T16:25:45.317Z,15.40
2022-09-17T16:28:19.348Z,15.34
2022-09-17T16:30:49.287Z,15.34
2022-09-17T16:33:18.259Z,15.25
2022-09-17T16:35:45.270Z,15.26
2022-09-17T16:38:12.113Z,15.28
2022-09-17T16:40:43.702Z,15.22
2022-09-17T16:43:10.687Z,15.16
2022-09-17T16:45:39.204Z,15.11
2022-09-17T16:48:07.273Z,15.11
2022-09-17T16:50:41.778Z,15.07
2022-09-17T16:53:08.525Z,15.01
2022-09-17T16:55:35.558Z,14.91
2022-09-17T16:58:02.266Z,14.92
2022-09-17T17:00:29.085Z,14.88
2022-09-17T17:02:57.765Z,14.83
2022-09-17T17:05:26.686Z,14.77
2022-09-17T17:07:54.876Z,14.78
2022-09-17T17:10:22.505Z,14.69
2022-09-17T17:12:49.685Z,14.63
2022-09-17T17:15:16.749Z,14.55
2022-09-17T17:17:43.439Z,14.47
2022-09-17T17:20:11.549Z,14.47
2022-09-17T17:22:39.198Z,14.40
2022-09-17T17:25:07.657Z,14.24
2022-09-17T17:27:34.667Z,14.20
2022-09-17T17:30:02.115Z,14.21
2022-09-17T17:32:28.833Z,14.17
2022-09-17T17:34:55.797Z,14.22
2022-09-17T17:37:24.086Z,14.24
2022-09-17T17:39:51.026Z,14.22
2022-09-17T17:42:17.902Z,14.15
2022-09-17T17:44:44.685Z,14.11
2022-09-17T17:47:11.658Z,14.07
2022-09-17T17:49:38.372Z,14.09
2022-09-17T17:52:05.321Z,14.02
2022-09-17T17:54:33.702Z,14.05
2022-09-17T17:57:00.444Z,14.01
2022-09-17T17:59:27.195Z,13.91
2022-09-17T18:01:53.984Z,13.90
2022-09-17T18:04:20.930Z,13.87
2022-09-17T18:06:48.184Z,13.85
2022-09-17T18:09:15.089Z,13.87
2022-09-17T18:11:43.191Z,13.87
2022-09-17T18:14:13.009Z,13.72
2022-09-17T18:16:40.285Z,13.73
2022-09-17T18:19:09.353Z,13.69
2022-09-17T18:21:36.083Z,13.71
2022-09-17T18:24:03.494Z,13.64
2022-09-17T18:26:30.929Z,13.47
2022-09-17T18:28:59.263Z,13.45
2022-09-17T18:31:28.601Z,13.42
2022-09-17T18:33:58.006Z,13.37
2022-09-17T18:36:25.854Z,13.33
2022-09-17T18:38:54.230Z,13.31
2022-09-17T18:41:21.156Z,13.28
2022-09-17T18:43:47.990Z,13.27
2022-09-17T18:46:16.517Z,13.32
2022-09-17T18:48:43.301Z,13.23
2022-09-17T18:51:13.659Z,13.17
2022-09-17T18:53:40.610Z,13.18
2022-09-17T18:56:15.699Z,13.20
2022-09-17T18:58:42.759Z,13.17
2022-09-17T19:01:09.652Z,13.19
2022-09-17T19:03:38.312Z,13.19
2022-09-17T19:06:09.067Z,13.19
2022-09-17T19:08:36.773Z,13.17
2022-09-17T19:11:04.905Z,13.15
2022-09-17T19:13:34.906Z,13.10
2022-09-17T19:16:04.369Z,13.09
2022-09-17T19:18:31.824Z,13.02
2022-09-17T19:21:01.855Z,13.01
2022-09-17T19:23:30.411Z,12.95
2022-09-17T19:26:04.042Z,12.78
2022-09-17T19:28:30.871Z,12.80
2022-09-17T19:30:57.975Z,12.76
2022-09-17T19:33:24.818Z,12.73
2022-09-17T19:35:51.600Z,12.65
2022-09-17T19:38:19.778Z,12.57
2022-09-17T19:40:56.909Z,12.49
2022-09-17T19:43:24.087Z,12.44
2022-09-17T19:45:50.911Z,12.47
2022-09-17T19:48:20.979Z,12.43
2022-09-17T19:50:51.199Z,12.44
2022-09-17T19:53:19.874Z,12.37
2022-09-17T19:55:47.127Z,12.37
2022-09-17T19:58:14.575Z,12.37
2022-09-17T20:00:41.612Z,12.40
2022-09-17T20:03:09.006Z,12.45
2022-09-17T20:05:36.066Z,12.45
2022-09-17T20:08:04.084Z,12.47
2022-09-17T20:10:35.657Z,12.48
2022-09-17T20:13:02.810Z,12.52
2022-09-17T20:15:29.920Z,12.55
2022-09-17T20:17:56.771Z,12.47
2022-09-17T20:20:23.549Z,12.50
2022-09-17T20:22:51.571Z,12.42
2022-09-17T20:25:18.465Z,12.33
2022-09-17T20:27:46.678Z,12.33
2022-09-17T20:30:13.958Z,12.26
2022-09-17T20:32:40.911Z,12.27
2022-09-17T20:35:08.929Z,12.19
2022-09-17T20:38:33.042Z,12.14
2022-09-17T20:40:22.691Z,12.12
2022-09-17T20:42:51.076Z,12.12
2022-09-17T20:45:17.804Z,12.13
2022-09-17T20:47:44.738Z,12.13
2022-09-17T20:50:11.742Z,12.18
2022-09-17T20:52:38.486Z,12.20
2022-09-17T20:55:05.996Z,12.28
2022-09-17T20:57:32.826Z,12.26
2022-09-17T21:00:01.913Z,12.26
2022-09-17T21:02:31.530Z,12.35
2022-09-17T21:04:58.490Z,12.37
2022-09-17T21:07:27.350Z,12.42
2022-09-17T21:09:54.118Z,12.41
2022-09-17T21:12:24.319Z,12.31
2022-09-17T21:14:54.231Z,12.35
2022-09-17T21:17:22.531Z,12.34
2022-09-17T21:19:49.227Z,12.34
2022-09-17T21:22:15.976Z,12.28
2022-09-17T21:24:42.718Z,12.19
2022-09-17T21:27:09.633Z,12.19
2022-09-17T21:29:36.889Z,12.18
2022-09-17T21:32:03.601Z,12.15
2022-09-17T21:34:31.754Z,12.16
2022-09-17T21:36:58.534Z,12.18
2022-09-17T21:39:25.277Z,12.19
2022-09-17T21:41:52.015Z,12.18
2022-09-17T21:44:18.764Z,12.23
2022-09-17T21:46:45.692Z,12.20
2022-09-17T21:49:12.483Z,12.20
2022-09-17T21:51:42.984Z,12.20
2022-09-17T21:54:13.179Z,12.19
2022-09-17T21:56:40.165Z,12.19
2022-09-17T21:59:09.575Z,12.20
2022-09-17T22:01:39.768Z,12.15
2022-09-17T22:04:08.757Z,12.12
2022-09-17T22:06:36.698Z,12.12
2022-09-17T22:09:07.213Z,12.22
2022-09-17T22:11:37.022Z,12.23
2022-09-17T22:14:06.545Z,12.15
2022-09-17T22:16:34.200Z,12.15
2022-09-17T22:19:01.048Z,12.18
2022-09-17T22:21:30.051Z,12.22
2022-09-17T22:24:00.831Z,12.19
2022-09-17T22:26:32.770Z,12.16
2022-09-17T22:29:01.759Z,12.09
2022-09-17T22:31:29.034Z,11.94
2022-09-17T22:33:56.118Z,11.92
2022-09-17T22:36:25.607Z,12.00
2022-09-17T22:38:55.788Z,11.98
2022-09-17T22:41:27.137Z,12.07
2022-09-17T22:43:57.565Z,12.13
2022-09-17T22:46:27.063Z,12.11
2022-09-17T22:48:54.485Z,12.00
2022-09-17T22:51:22.667Z,11.94
2022-09-17T22:53:54.545Z,12.02
2022-09-17T22:56:29.283Z,12.02
2022-09-17T22:58:58.552Z,12.11
2022-09-17T23:01:29.038Z,12.16
2022-09-17T23:03:58.115Z,12.12
2022-09-17T23:06:28.712Z,12.08
2022-09-17T23:08:57.031Z,12.15
2022-09-17T23:11:27.207Z,12.06
2022-09-17T23:13:58.682Z,11.95
2022-09-17T23:16:25.630Z,11.98
2022-09-17T23:18:52.494Z,12.09
2022-09-17T23:21:20.674Z,12.11
2022-09-17T23:23:50.671Z,12.04
2022-09-17T23:26:20.773Z,12.02
2022-09-17T23:28:48.877Z,12.05
2022-09-17T23:31:21.947Z,12.09
2022-09-17T23:33:50.549Z,12.10
2022-09-17T23:36:20.844Z,12.10
2022-09-17T23:38:49.752Z,12.14
2022-09-17T23:41:19.217Z,12.22
2022-09-17T23:43:49.136Z,12.21
2022-09-17T23:46:18.192Z,12.13
2022-09-17T23:48:45.710Z,11.96
2022-09-17T23:51:12.761Z,11.86
2022-09-17T23:53:40.056Z,11.86
2022-09-17T23:56:12.940Z,11.91
2022-09-17T23:58:39.890Z,11.87
